sensor_id;sensor_type;location;lat;lon;timestamp;temperature;humidity
60868;DHT22;46702;48.370;10.794;2022-09-03T00:00:20;15.00;99.20
60868;DHT22;46702;48.370;10.794;2022-09-03T00:03:30;15.00;99.30
60868;DHT22;46702;48.370;10.794;2022-09-03T00:06:17;14.90;99.90
60868;DHT22;46702;48.370;10.794;2022-09-03T00:11:24;15.00;98.80
60868;DHT22;46702;48.370;10.794;2022-09-03T00:14:08;15.00;98.80
60868;DHT22;46702;48.370;10.794;2022-09-03T00:16:50;15.00;99.00
60868;DHT22;46702;48.370;10.794;2022-09-03T00:19:21;14.90;99.90
60868;DHT22;46702;48.370;10.794;2022-09-03T00:21:53;14.80;99.90
60868;DHT22;46702;48.370;10.794;2022-09-03T00:24:22;14.80;99.90
60868;DHT22;46702;48.370;10.794;2022-09-03T00:26:56;14.90;99.40
60868;DHT22;46702;48.370;10.794;2022-09-03T00:29:28;14.90;99.60
60868;DHT22;46702;48.370;10.794;2022-09-03T00:32:04;14.90;99.80
60868;DHT22;46702;48.370;10.794;2022-09-03T00:34:35;14.90;99.40
60868;DHT22;46702;48.370;10.794;2022-09-03T00:37:04;14.80;99.80
60868;DHT22;46702;48.370;10.794;2022-09-03T00:39:29;14.70;99.60
60868;DHT22;46702;48.370;10.794;2022-09-03T00:50:14;14.60;99.90
60868;DHT22;46702;48.370;10.794;2022-09-03T01:00:21;14.70;98.20
60868;DHT22;46702;48.370;10.794;2022-09-03T01:03:08;14.70;98.30
60868;DHT22;46702;48.370;10.794;2022-09-03T01:14:02;14.60;98.20
60868;DHT22;46702;48.370;10.794;2022-09-03T01:16:41;14.70;97.80
60868;DHT22;46702;48.370;10.794;2022-09-03T01:22:01;14.60;97.90
60868;DHT22;46702;48.370;10.794;2022-09-03T01:28:27;14.20;99.00
60868;DHT22;46702;48.370;10.794;2022-09-03T01:30:41;14.30;98.90
60868;DHT22;46702;48.370;10.794;2022-09-03T01:36:06;14.30;99.00
60868;DHT22;46702;48.370;10.794;2022-09-03T01:38:55;14.20;99.00
60868;DHT22;46702;48.370;10.794;2022-09-03T01:44:46;14.10;99.70
60868;DHT22;46702;48.370;10.794;2022-09-03T01:58:48;14.10;99.90
60868;DHT22;46702;48.370;10.794;2022-09-03T02:01:33;14.00;99.90
60868;DHT22;46702;48.370;10.794;2022-09-03T02:04:00;14.00;99.90
60868;DHT22;46702;48.370;10.794;2022-09-03T02:06:26;13.90;99.90
60868;DHT22;46702;48.370;10.794;2022-09-03T02:08:56;13.90;99.90
60868;DHT22;46702;48.370;10.794;2022-09-03T02:11:22;13.90;99.90
60868;DHT22;46702;48.370;10.794;2022-09-03T02:13:51;13.80;99.90
60868;DHT22;46702;48.370;10.794;2022-09-03T02:16:21;13.80;99.90
60868;DHT22;46702;48.370;10.794;2022-09-03T02:18:55;13.80;99.90
60868;DHT22;46702;48.370;10.794;2022-09-03T02:21:23;13.80;99.90
60868;DHT22;46702;48.370;10.794;2022-09-03T02:23:49;13.80;99.90
60868;DHT22;46702;48.370;10.794;2022-09-03T02:26:20;13.90;99.90
60868;DHT22;46702;48.370;10.794;2022-09-03T02:28:47;13.70;99.90
60868;DHT22;46702;48.370;10.794;2022-09-03T02:31:13;13.60;99.90
60868;DHT22;46702;48.370;10.794;2022-09-03T02:33:43;13.50;99.90
60868;DHT22;46702;48.370;10.794;2022-09-03T02:36:14;13.30;99.90
60868;DHT22;46702;48.370;10.794;2022-09-03T02:38:44;13.30;99.90
60868;DHT22;46702;48.370;10.794;2022-09-03T02:41:10;13.40;99.90
60868;DHT22;46702;48.370;10.794;2022-09-03T02:46:20;13.50;99.90
60868;DHT22;46702;48.370;10.794;2022-09-03T02:48:46;13.40;99.90
60868;DHT22;46702;48.370;10.794;2022-09-03T02:51:12;13.40;99.90
60868;DHT22;46702;48.370;10.794;2022-09-03T02:53:37;13.50;99.90
60868;DHT22;46702;48.370;10.794;2022-09-03T02:56:04;13.60;99.90
60868;DHT22;46702;48.370;10.794;2022-09-03T02:58:29;13.70;99.90
60868;DHT22;46702;48.370;10.794;2022-09-03T03:00:56;13.60;99.90
60868;DHT22;46702;48.370;10.794;2022-09-03T03:03:22;13.50;99.90
60868;DHT22;46702;48.370;10.794;2022-09-03T03:05:51;13.60;99.90
60868;DHT22;46702;48.370;10.794;2022-09-03T03:08:18;13.60;99.90
60868;DHT22;46702;48.370;10.794;2022-09-03T03:10:46;13.60;99.90
60868;DHT22;46702;48.370;10.794;2022-09-03T03:13:14;13.60;99.90
60868;DHT22;46702;48.370;10.794;2022-09-03T03:15:39;13.60;99.90
60868;DHT22;46702;48.370;10.794;2022-09-03T03:18:05;13.60;99.90
60868;DHT22;46702;48.370;10.794;2022-09-03T03:20:32;13.50;99.90
60868;DHT22;46702;48.370;10.794;2022-09-03T03:23:01;13.20;99.90
60868;DHT22;46702;48.370;10.794;2022-09-03T03:25:26;13.30;99.90
60868;DHT22;46702;48.370;10.794;2022-09-03T03:27:54;13.20;99.90
60868;DHT22;46702;48.370;10.794;2022-09-03T03:30:21;13.00;99.90
60868;DHT22;46702;48.370;10.794;2022-09-03T03:32:48;13.00;99.90
60868;DHT22;46702;48.370;10.794;2022-09-03T03:35:13;13.10;99.90
60868;DHT22;46702;48.370;10.794;2022-09-03T03:37:39;13.10;99.90
60868;DHT22;46702;48.370;10.794;2022-09-03T03:40:06;13.10;99.90
60868;DHT22;46702;48.370;10.794;2022-09-03T03:42:35;13.10;99.90
60868;DHT22;46702;48.370;10.794;2022-09-03T03:45:01;13.00;99.90
60868;DHT22;46702;48.370;10.794;2022-09-03T03:47:29;13.00;99.90
60868;DHT22;46702;48.370;10.794;2022-09-03T03:49:57;13.10;99.90
60868;DHT22;46702;48.370;10.794;2022-09-03T03:52:24;13.10;99.90
60868;DHT22;46702;48.370;10.794;2022-09-03T03:54:51;13.00;99.90
60868;DHT22;46702;48.370;10.794;2022-09-03T03:57:17;12.90;99.90
60868;DHT22;46702;48.370;10.794;2022-09-03T03:59:44;13.10;99.90
60868;DHT22;46702;48.370;10.794;2022-09-03T04:02:10;13.00;99.90
60868;DHT22;46702;48.370;10.794;2022-09-03T04:04:35;12.70;99.90
60868;DHT22;46702;48.370;10.794;2022-09-03T04:07:01;12.70;99.90
60868;DHT22;46702;48.370;10.794;2022-09-03T04:09:27;12.80;99.90
60868;DHT22;46702;48.370;10.794;2022-09-03T04:11:52;12.40;99.90
60868;DHT22;46702;48.370;10.794;2022-09-03T04:14:18;12.50;99.90
60868;DHT22;46702;48.370;10.794;2022-09-03T04:16:43;12.40;99.90
60868;DHT22;46702;48.370;10.794;2022-09-03T04:19:12;12.30;99.90
60868;DHT22;46702;48.370;10.794;2022-09-03T04:21:38;12.40;99.90
60868;DHT22;46702;48.370;10.794;2022-09-03T04:24:04;12.40;99.90
60868;DHT22;46702;48.370;10.794;2022-09-03T04:26:31;12.50;99.90
60868;DHT22;46702;48.370;10.794;2022-09-03T04:29:08;12.50;99.90
60868;DHT22;46702;48.370;10.794;2022-09-03T04:31:36;12.60;99.90
60868;DHT22;46702;48.370;10.794;2022-09-03T04:34:02;12.80;99.90
60868;DHT22;46702;48.370;10.794;2022-09-03T04:36:31;12.70;99.90
60868;DHT22;46702;48.370;10.794;2022-09-03T04:38:58;12.60;99.90
60868;DHT22;46702;48.370;10.794;2022-09-03T04:41:27;12.70;99.90
60868;DHT22;46702;48.370;10.794;2022-09-03T04:43:54;12.90;99.90
60868;DHT22;46702;48.370;10.794;2022-09-03T04:46:22;12.90;99.90
60868;DHT22;46702;48.370;10.794;2022-09-03T04:48:49;13.00;99.90
60868;DHT22;46702;48.370;10.794;2022-09-03T04:51:18;13.10;99.90
60868;DHT22;46702;48.370;10.794;2022-09-03T04:53:45;13.20;99.90
60868;DHT22;46702;48.370;10.794;2022-09-03T04:56:16;13.00;99.90
60868;DHT22;46702;48.370;10.794;2022-09-03T04:58:42;12.90;99.90
60868;DHT22;46702;48.370;10.794;2022-09-03T05:01:10;13.00;99.90
60868;DHT22;46702;48.370;10.794;2022-09-03T05:03:36;13.10;99.90
60868;DHT22;46702;48.370;10.794;2022-09-03T05:06:03;13.10;99.90
60868;DHT22;46702;48.370;10.794;2022-09-03T05:08:30;13.20;99.90
60868;DHT22;46702;48.370;10.794;2022-09-03T05:10:59;13.20;99.90
60868;DHT22;46702;48.370;10.794;2022-09-03T05:13:25;13.10;99.90
60868;DHT22;46702;48.370;10.794;2022-09-03T05:15:59;13.00;99.90
60868;DHT22;46702;48.370;10.794;2022-09-03T05:18:25;13.10;99.90
60868;DHT22;46702;48.370;10.794;2022-09-03T05:21:09;13.20;99.90
60868;DHT22;46702;48.370;10.794;2022-09-03T05:23:39;13.40;99.90
60868;DHT22;46702;48.370;10.794;2022-09-03T05:26:09;13.40;99.90
60868;DHT22;46702;48.370;10.794;2022-09-03T05:28:36;13.40;99.90
60868;DHT22;46702;48.370;10.794;2022-09-03T05:33:32;13.40;99.90
60868;DHT22;46702;48.370;10.794;2022-09-03T05:36:02;13.40;99.90
60868;DHT22;46702;48.370;10.794;2022-09-03T05:38:28;13.50;99.90
60868;DHT22;46702;48.370;10.794;2022-09-03T05:41:00;13.40;99.90
60868;DHT22;46702;48.370;10.794;2022-09-03T05:43:27;13.40;99.90
60868;DHT22;46702;48.370;10.794;2022-09-03T05:46:16;13.40;99.90
60868;DHT22;46702;48.370;10.794;2022-09-03T05:48:43;13.50;99.90
60868;DHT22;46702;48.370;10.794;2022-09-03T05:51:16;13.40;99.90
60868;DHT22;46702;48.370;10.794;2022-09-03T05:53:44;13.30;99.90
60868;DHT22;46702;48.370;10.794;2022-09-03T05:56:21;13.10;99.90
60868;DHT22;46702;48.370;10.794;2022-09-03T05:58:49;13.10;99.90
60868;DHT22;46702;48.370;10.794;2022-09-03T06:01:23;13.10;99.90
60868;DHT22;46702;48.370;10.794;2022-09-03T06:04:10;13.00;99.90
60868;DHT22;46702;48.370;10.794;2022-09-03T06:06:38;13.00;99.90
60868;DHT22;46702;48.370;10.794;2022-09-03T06:09:18;13.10;99.90
60868;DHT22;46702;48.370;10.794;2022-09-03T06:11:45;13.10;99.90
60868;DHT22;46702;48.370;10.794;2022-09-03T06:14:13;13.20;99.90
60868;DHT22;46702;48.370;10.794;2022-09-03T06:16:41;13.30;99.90
60868;DHT22;46702;48.370;10.794;2022-09-03T06:19:07;13.40;99.90
60868;DHT22;46702;48.370;10.794;2022-09-03T06:21:39;13.50;99.90
60868;DHT22;46702;48.370;10.794;2022-09-03T06:24:12;13.50;99.90
60868;DHT22;46702;48.370;10.794;2022-09-03T06:26:39;13.30;99.90
60868;DHT22;46702;48.370;10.794;2022-09-03T06:29:05;13.00;99.90
60868;DHT22;46702;48.370;10.794;2022-09-03T06:31:31;12.80;99.90
60868;DHT22;46702;48.370;10.794;2022-09-03T06:33:57;12.80;99.90
60868;DHT22;46702;48.370;10.794;2022-09-03T06:36:23;12.70;99.90
60868;DHT22;46702;48.370;10.794;2022-09-03T06:38:52;12.70;99.90
60868;DHT22;46702;48.370;10.794;2022-09-03T06:41:20;12.70;99.90
60868;DHT22;46702;48.370;10.794;2022-09-03T06:43:53;12.70;99.90
60868;DHT22;46702;48.370;10.794;2022-09-03T06:46:21;12.70;99.90
60868;DHT22;46702;48.370;10.794;2022-09-03T06:48:47;12.70;99.90
60868;DHT22;46702;48.370;10.794;2022-09-03T06:51:15;12.90;99.90
60868;DHT22;46702;48.370;10.794;2022-09-03T06:53:46;13.00;99.90
60868;DHT22;46702;48.370;10.794;2022-09-03T06:56:18;13.00;99.90
60868;DHT22;46702;48.370;10.794;2022-09-03T06:58:45;13.10;99.90
60868;DHT22;46702;48.370;10.794;2022-09-03T07:03:38;13.30;99.90
60868;DHT22;46702;48.370;10.794;2022-09-03T07:06:07;13.40;99.90
60868;DHT22;46702;48.370;10.794;2022-09-03T07:08:33;13.50;99.90
60868;DHT22;46702;48.370;10.794;2022-09-03T07:11:07;13.70;99.90
60868;DHT22;46702;48.370;10.794;2022-09-03T07:13:37;13.80;99.90
60868;DHT22;46702;48.370;10.794;2022-09-03T07:16:07;13.90;99.90
60868;DHT22;46702;48.370;10.794;2022-09-03T07:18:33;14.00;99.90
60868;DHT22;46702;48.370;10.794;2022-09-03T07:21:11;14.10;99.90
60868;DHT22;46702;48.370;10.794;2022-09-03T07:23:37;14.20;99.90
60868;DHT22;46702;48.370;10.794;2022-09-03T07:26:12;14.30;99.90
60868;DHT22;46702;48.370;10.794;2022-09-03T07:28:40;14.40;99.90
60868;DHT22;46702;48.370;10.794;2022-09-03T07:31:17;14.40;99.90
60868;DHT22;46702;48.370;10.794;2022-09-03T07:33:47;14.50;99.90
60868;DHT22;46702;48.370;10.794;2022-09-03T07:36:15;14.60;99.90
60868;DHT22;46702;48.370;10.794;2022-09-03T07:38:42;14.60;99.90
60868;DHT22;46702;48.370;10.794;2022-09-03T07:41:11;14.80;99.90
60868;DHT22;46702;48.370;10.794;2022-09-03T07:43:39;14.80;99.90
60868;DHT22;46702;48.370;10.794;2022-09-03T07:46:07;15.00;99.90
60868;DHT22;46702;48.370;10.794;2022-09-03T07:48:33;15.10;99.90
60868;DHT22;46702;48.370;10.794;2022-09-03T07:50:59;15.20;99.90
60868;DHT22;46702;48.370;10.794;2022-09-03T07:53:28;15.30;99.90
60868;DHT22;46702;48.370;10.794;2022-09-03T07:56:03;15.40;99.90
60868;DHT22;46702;48.370;10.794;2022-09-03T07:58:30;15.50;99.90
60868;DHT22;46702;48.370;10.794;2022-09-03T08:00:57;15.60;99.90
60868;DHT22;46702;48.370;10.794;2022-09-03T08:03:23;15.60;99.90
60868;DHT22;46702;48.370;10.794;2022-09-03T08:05:48;15.60;99.90
60868;DHT22;46702;48.370;10.794;2022-09-03T08:08:14;15.70;99.90
60868;DHT22;46702;48.370;10.794;2022-09-03T08:10:40;15.70;99.90
60868;DHT22;46702;48.370;10.794;2022-09-03T08:13:06;15.80;99.90
60868;DHT22;46702;48.370;10.794;2022-09-03T08:15:32;15.90;99.90
60868;DHT22;46702;48.370;10.794;2022-09-03T08:17:59;16.00;99.90
60868;DHT22;46702;48.370;10.794;2022-09-03T08:20:26;16.10;99.90
60868;DHT22;46702;48.370;10.794;2022-09-03T08:22:52;16.20;99.90
60868;DHT22;46702;48.370;10.794;2022-09-03T08:25:17;16.30;99.90
60868;DHT22;46702;48.370;10.794;2022-09-03T08:27:43;16.50;99.90
60868;DHT22;46702;48.370;10.794;2022-09-03T08:30:09;16.60;99.90
60868;DHT22;46702;48.370;10.794;2022-09-03T08:32:37;16.60;99.90
60868;DHT22;46702;48.370;10.794;2022-09-03T08:35:04;16.80;99.90
60868;DHT22;46702;48.370;10.794;2022-09-03T08:37:30;16.90;99.90
60868;DHT22;46702;48.370;10.794;2022-09-03T08:39:57;17.00;99.90
60868;DHT22;46702;48.370;10.794;2022-09-03T08:45:05;17.30;99.90
60868;DHT22;46702;48.370;10.794;2022-09-03T08:47:40;17.40;99.90
60868;DHT22;46702;48.370;10.794;2022-09-03T08:50:30;17.40;99.90
60868;DHT22;46702;48.370;10.794;2022-09-03T08:53:06;17.40;99.90
60868;DHT22;46702;48.370;10.794;2022-09-03T08:55:50;17.40;99.90
60868;DHT22;46702;48.370;10.794;2022-09-03T08:58:22;17.40;99.90
60868;DHT22;46702;48.370;10.794;2022-09-03T09:03:55;17.70;99.90
60868;DHT22;46702;48.370;10.794;2022-09-03T09:06:45;18.00;99.90
60868;DHT22;46702;48.370;10.794;2022-09-03T09:18:40;18.50;99.90
60868;DHT22;46702;48.370;10.794;2022-09-03T09:21:27;18.60;99.90
60868;DHT22;46702;48.370;10.794;2022-09-03T09:24:00;19.00;99.90
60868;DHT22;46702;48.370;10.794;2022-09-03T09:26:28;18.90;99.90
60868;DHT22;46702;48.370;10.794;2022-09-03T09:28:59;18.90;99.90
60868;DHT22;46702;48.370;10.794;2022-09-03T09:31:27;19.10;99.90
60868;DHT22;46702;48.370;10.794;2022-09-03T09:34:00;19.00;99.90
60868;DHT22;46702;48.370;10.794;2022-09-03T09:36:26;19.10;99.90
60868;DHT22;46702;48.370;10.794;2022-09-03T09:38:52;19.20;99.90
60868;DHT22;46702;48.370;10.794;2022-09-03T09:41:19;19.20;99.90
60868;DHT22;46702;48.370;10.794;2022-09-03T09:43:57;19.10;99.90
60868;DHT22;46702;48.370;10.794;2022-09-03T09:46:25;19.10;99.90
60868;DHT22;46702;48.370;10.794;2022-09-03T09:48:56;19.20;99.90
60868;DHT22;46702;48.370;10.794;2022-09-03T09:51:24;19.20;99.90
60868;DHT22;46702;48.370;10.794;2022-09-03T09:54:02;19.20;99.90
60868;DHT22;46702;48.370;10.794;2022-09-03T09:56:27;19.20;99.90
60868;DHT22;46702;48.370;10.794;2022-09-03T09:59:02;19.20;99.90
60868;DHT22;46702;48.370;10.794;2022-09-03T10:01:28;19.20;99.90
60868;DHT22;46702;48.370;10.794;2022-09-03T10:03:59;19.20;99.90
60868;DHT22;46702;48.370;10.794;2022-09-03T10:06:27;19.30;99.90
60868;DHT22;46702;48.370;10.794;2022-09-03T10:09:31;19.40;99.90
60868;DHT22;46702;48.370;10.794;2022-09-03T10:20:41;19.00;99.90
60868;DHT22;46702;48.370;10.794;2022-09-03T10:25:36;19.00;99.90
60868;DHT22;46702;48.370;10.794;2022-09-03T10:28:05;19.10;99.90
60868;DHT22;46702;48.370;10.794;2022-09-03T10:30:46;19.10;99.90
60868;DHT22;46702;48.370;10.794;2022-09-03T10:33:46;19.20;99.90
60868;DHT22;46702;48.370;10.794;2022-09-03T10:36:27;19.30;99.90
60868;DHT22;46702;48.370;10.794;2022-09-03T10:39:03;19.40;99.90
60868;DHT22;46702;48.370;10.794;2022-09-03T10:49:22;19.40;99.90
60868;DHT22;46702;48.370;10.794;2022-09-03T10:52:02;19.40;99.90
60868;DHT22;46702;48.370;10.794;2022-09-03T10:55:43;19.50;99.90
60868;DHT22;46702;48.370;10.794;2022-09-03T10:58:22;19.60;99.90
60868;DHT22;46702;48.370;10.794;2022-09-03T11:01:01;19.90;99.90
60868;DHT22;46702;48.370;10.794;2022-09-03T11:06:06;20.00;99.90
60868;DHT22;46702;48.370;10.794;2022-09-03T11:08:39;20.20;99.90
60868;DHT22;46702;48.370;10.794;2022-09-03T11:11:16;20.40;99.90
60868;DHT22;46702;48.370;10.794;2022-09-03T11:13:48;20.20;99.90
60868;DHT22;46702;48.370;10.794;2022-09-03T11:16:25;20.30;99.90
60868;DHT22;46702;48.370;10.794;2022-09-03T11:19:01;20.30;99.90
60868;DHT22;46702;48.370;10.794;2022-09-03T11:21:29;20.20;99.90
60868;DHT22;46702;48.370;10.794;2022-09-03T11:24:10;20.40;99.90
60868;DHT22;46702;48.370;10.794;2022-09-03T11:26:38;20.60;99.90
60868;DHT22;46702;48.370;10.794;2022-09-03T11:29:31;20.90;99.90
60868;DHT22;46702;48.370;10.794;2022-09-03T11:32:04;21.20;99.90
60868;DHT22;46702;48.370;10.794;2022-09-03T11:34:49;21.30;99.90
60868;DHT22;46702;48.370;10.794;2022-09-03T11:37:24;21.20;99.90
60868;DHT22;46702;48.370;10.794;2022-09-03T11:39:55;21.30;99.90
60868;DHT22;46702;48.370;10.794;2022-09-03T11:42:41;21.30;99.90
60868;DHT22;46702;48.370;10.794;2022-09-03T11:45:20;21.30;99.90
60868;DHT22;46702;48.370;10.794;2022-09-03T11:47:46;21.60;99.90
60868;DHT22;46702;48.370;10.794;2022-09-03T11:53:08;21.30;99.50
60868;DHT22;46702;48.370;10.794;2022-09-03T11:58:31;21.50;99.90
60868;DHT22;46702;48.370;10.794;2022-09-03T12:01:01;21.60;99.90
60868;DHT22;46702;48.370;10.794;2022-09-03T12:03:41;21.50;97.80
60868;DHT22;46702;48.370;10.794;2022-09-03T12:19:57;21.60;96.60
60868;DHT22;46702;48.370;10.794;2022-09-03T12:22:25;21.80;99.10
60868;DHT22;46702;48.370;10.794;2022-09-03T12:24:53;21.90;93.00
60868;DHT22;46702;48.370;10.794;2022-09-03T12:27:21;21.70;83.10
60868;DHT22;46702;48.370;10.794;2022-09-03T12:29:58;21.70;90.10
60868;DHT22;46702;48.370;10.794;2022-09-03T12:32:32;21.70;92.80
60868;DHT22;46702;48.370;10.794;2022-09-03T12:35:19;21.80;94.10
60868;DHT22;46702;48.370;10.794;2022-09-03T12:37:45;21.70;90.00
60868;DHT22;46702;48.370;10.794;2022-09-03T12:40:23;21.70;90.70
60868;DHT22;46702;48.370;10.794;2022-09-03T12:42:50;21.80;91.80
60868;DHT22;46702;48.370;10.794;2022-09-03T12:45:24;21.80;90.50
60868;DHT22;46702;48.370;10.794;2022-09-03T12:47:51;21.80;91.70
60868;DHT22;46702;48.370;10.794;2022-09-03T12:50:21;21.80;93.10
60868;DHT22;46702;48.370;10.794;2022-09-03T12:52:52;21.80;95.40
60868;DHT22;46702;48.370;10.794;2022-09-03T13:01:12;21.60;93.50
60868;DHT22;46702;48.370;10.794;2022-09-03T13:06:18;21.20;95.90
60868;DHT22;46702;48.370;10.794;2022-09-03T13:09:00;21.10;95.20
60868;DHT22;46702;48.370;10.794;2022-09-03T13:11:27;20.90;95.90
60868;DHT22;46702;48.370;10.794;2022-09-03T13:21:57;19.80;99.90
60868;DHT22;46702;48.370;10.794;2022-09-03T13:24:58;19.10;99.90
60868;DHT22;46702;48.370;10.794;2022-09-03T13:30:52;18.10;99.90
60868;DHT22;46702;48.370;10.794;2022-09-03T13:33:40;18.10;99.90
60868;DHT22;46702;48.370;10.794;2022-09-03T13:36:17;18.10;99.90
60868;DHT22;46702;48.370;10.794;2022-09-03T13:38:55;18.10;99.90
60868;DHT22;46702;48.370;10.794;2022-09-03T13:41:42;18.00;99.90
60868;DHT22;46702;48.370;10.794;2022-09-03T13:46:59;17.90;99.90
60868;DHT22;46702;48.370;10.794;2022-09-03T13:52:17;17.90;99.90
60868;DHT22;46702;48.370;10.794;2022-09-03T13:54:54;18.20;99.90
60868;DHT22;46702;48.370;10.794;2022-09-03T13:59:59;18.10;99.90
60868;DHT22;46702;48.370;10.794;2022-09-03T14:21:06;18.60;99.90
60868;DHT22;46702;48.370;10.794;2022-09-03T14:23:54;18.60;99.90
60868;DHT22;46702;48.370;10.794;2022-09-03T14:26:30;18.70;99.90
60868;DHT22;46702;48.370;10.794;2022-09-03T14:39:53;18.70;99.90
60868;DHT22;46702;48.370;10.794;2022-09-03T14:45:28;18.80;99.90
60868;DHT22;46702;48.370;10.794;2022-09-03T14:58:32;18.90;99.90
60868;DHT22;46702;48.370;10.794;2022-09-03T15:01:09;18.90;99.90
60868;DHT22;46702;48.370;10.794;2022-09-03T15:09:54;18.60;99.90
60868;DHT22;46702;48.370;10.794;2022-09-03T15:12:49;18.50;99.90
60868;DHT22;46702;48.370;10.794;2022-09-03T15:15:20;18.50;99.90
60868;DHT22;46702;48.370;10.794;2022-09-03T15:20:47;18.10;99.90
60868;DHT22;46702;48.370;10.794;2022-09-03T15:29:14;18.00;99.90
60868;DHT22;46702;48.370;10.794;2022-09-03T15:32:03;18.00;99.90
60868;DHT22;46702;48.370;10.794;2022-09-03T15:37:20;18.30;99.90
60868;DHT22;46702;48.370;10.794;2022-09-03T15:40:46;18.30;99.90
60868;DHT22;46702;48.370;10.794;2022-09-03T15:42:45;18.40;99.90
60868;DHT22;46702;48.370;10.794;2022-09-03T15:45:34;18.60;99.90
60868;DHT22;46702;48.370;10.794;2022-09-03T15:51:04;18.60;99.90
60868;DHT22;46702;48.370;10.794;2022-09-03T15:59:18;19.00;99.90
60868;DHT22;46702;48.370;10.794;2022-09-03T16:01:51;19.20;99.90
60868;DHT22;46702;48.370;10.794;2022-09-03T16:12:56;19.50;99.90
60868;DHT22;46702;48.370;10.794;2022-09-03T16:15:32;19.60;99.90
60868;DHT22;46702;48.370;10.794;2022-09-03T16:18:08;19.70;99.90
60868;DHT22;46702;48.370;10.794;2022-09-03T16:23:11;19.80;99.90
60868;DHT22;46702;48.370;10.794;2022-09-03T16:26:06;19.80;99.90
60868;DHT22;46702;48.370;10.794;2022-09-03T16:39:58;19.80;99.90
60868;DHT22;46702;48.370;10.794;2022-09-03T16:48:09;20.00;99.90
60868;DHT22;46702;48.370;10.794;2022-09-03T16:50:49;20.10;99.90
60868;DHT22;46702;48.370;10.794;2022-09-03T16:56:39;20.10;99.90
60868;DHT22;46702;48.370;10.794;2022-09-03T16:59:40;20.20;99.90
60868;DHT22;46702;48.370;10.794;2022-09-03T17:11:14;20.50;99.90
60868;DHT22;46702;48.370;10.794;2022-09-03T17:24:57;20.00;99.90
60868;DHT22;46702;48.370;10.794;2022-09-03T17:27:42;19.90;99.90
60868;DHT22;46702;48.370;10.794;2022-09-03T17:38:26;19.20;99.90
60868;DHT22;46702;48.370;10.794;2022-09-03T17:41:06;19.20;99.90
60868;DHT22;46702;48.370;10.794;2022-09-03T17:43:43;19.20;99.90
60868;DHT22;46702;48.370;10.794;2022-09-03T17:46:24;19.20;99.90
60868;DHT22;46702;48.370;10.794;2022-09-03T17:48:53;19.20;99.90
60868;DHT22;46702;48.370;10.794;2022-09-03T17:59:10;19.00;99.90
60868;DHT22;46702;48.370;10.794;2022-09-03T18:01:49;18.80;99.90
60868;DHT22;46702;48.370;10.794;2022-09-03T18:07:50;18.80;99.90
60868;DHT22;46702;48.370;10.794;2022-09-03T18:16:08;18.50;99.90
60868;DHT22;46702;48.370;10.794;2022-09-03T18:18:41;18.30;99.90
60868;DHT22;46702;48.370;10.794;2022-09-03T18:21:11;18.20;99.90
60868;DHT22;46702;48.370;10.794;2022-09-03T18:24:30;18.20;99.90
60868;DHT22;46702;48.370;10.794;2022-09-03T18:27:32;18.00;99.90
60868;DHT22;46702;48.370;10.794;2022-09-03T18:30:19;18.00;99.90
60868;DHT22;46702;48.370;10.794;2022-09-03T18:33:03;18.00;99.90
60868;DHT22;46702;48.370;10.794;2022-09-03T18:35:47;17.70;99.90
60868;DHT22;46702;48.370;10.794;2022-09-03T18:38:34;17.60;99.90
60868;DHT22;46702;48.370;10.794;2022-09-03T18:45:02;17.70;99.90
60868;DHT22;46702;48.370;10.794;2022-09-03T18:54:07;17.60;99.90
60868;DHT22;46702;48.370;10.794;2022-09-03T18:56:53;17.60;99.90
60868;DHT22;46702;48.370;10.794;2022-09-03T19:03:02;17.20;99.90
60868;DHT22;46702;48.370;10.794;2022-09-03T19:06:12;17.20;99.90
60868;DHT22;46702;48.370;10.794;2022-09-03T19:09:19;17.10;99.90
60868;DHT22;46702;48.370;10.794;2022-09-03T19:12:22;17.10;99.90
60868;DHT22;46702;48.370;10.794;2022-09-03T19:21:26;16.80;99.90
60868;DHT22;46702;48.370;10.794;2022-09-03T19:24:11;16.70;99.90
60868;DHT22;46702;48.370;10.794;2022-09-03T19:30:08;16.40;99.90
60868;DHT22;46702;48.370;10.794;2022-09-03T19:33:10;16.20;99.90
60868;DHT22;46702;48.370;10.794;2022-09-03T19:36:19;16.10;99.90
60868;DHT22;46702;48.370;10.794;2022-09-03T19:45:45;16.00;99.90
60868;DHT22;46702;48.370;10.794;2022-09-03T19:51:49;16.10;99.90
60868;DHT22;46702;48.370;10.794;2022-09-03T19:54:36;16.10;99.90
60868;DHT22;46702;48.370;10.794;2022-09-03T19:57:21;15.90;99.90
60868;DHT22;46702;48.370;10.794;2022-09-03T20:00:06;15.90;99.90
60868;DHT22;46702;48.370;10.794;2022-09-03T20:02:50;15.80;99.90
60868;DHT22;46702;48.370;10.794;2022-09-03T20:05:36;15.70;99.90
60868;DHT22;46702;48.370;10.794;2022-09-03T20:08:22;15.80;99.90
60868;DHT22;46702;48.370;10.794;2022-09-03T20:11:10;15.90;99.90
60868;DHT22;46702;48.370;10.794;2022-09-03T20:13:38;15.50;99.90
60868;DHT22;46702;48.370;10.794;2022-09-03T20:16:45;15.50;99.90
60868;DHT22;46702;48.370;10.794;2022-09-03T20:30:04;15.30;99.90
60868;DHT22;46702;48.370;10.794;2022-09-03T20:37:46;14.70;99.90
60868;DHT22;46702;48.370;10.794;2022-09-03T20:40:22;14.40;99.90
60868;DHT22;46702;48.370;10.794;2022-09-03T20:51:15;14.80;99.90
60868;DHT22;46702;48.370;10.794;2022-09-03T20:59:16;14.70;99.90
60868;DHT22;46702;48.370;10.794;2022-09-03T21:23:39;14.70;99.90
60868;DHT22;46702;48.370;10.794;2022-09-03T21:26:26;14.80;99.90
60868;DHT22;46702;48.370;10.794;2022-09-03T21:29:12;14.80;99.90
60868;DHT22;46702;48.370;10.794;2022-09-03T21:32:09;14.50;99.90
60868;DHT22;46702;48.370;10.794;2022-09-03T21:37:10;14.30;99.90
60868;DHT22;46702;48.370;10.794;2022-09-03T21:39:47;13.90;99.90
60868;DHT22;46702;48.370;10.794;2022-09-03T21:42:22;13.30;99.90
60868;DHT22;46702;48.370;10.794;2022-09-03T21:47:58;13.00;99.90
60868;DHT22;46702;48.370;10.794;2022-09-03T21:50:32;12.90;99.90
60868;DHT22;46702;48.370;10.794;2022-09-03T21:56:03;13.10;99.90
60868;DHT22;46702;48.370;10.794;2022-09-03T22:04:11;13.30;99.90
60868;DHT22;46702;48.370;10.794;2022-09-03T22:06:52;13.40;99.90
60868;DHT22;46702;48.370;10.794;2022-09-03T22:09:59;13.50;99.90
60868;DHT22;46702;48.370;10.794;2022-09-03T22:12:50;13.60;99.90
60868;DHT22;46702;48.370;10.794;2022-09-03T22:15:20;13.60;99.90
60868;DHT22;46702;48.370;10.794;2022-09-03T22:18:05;13.60;99.90
60868;DHT22;46702;48.370;10.794;2022-09-03T22:20:33;13.60;99.90
60868;DHT22;46702;48.370;10.794;2022-09-03T22:23:10;13.70;99.90